createdAt,value
2022-09-16T00:00:19.254Z,42.02
2022-09-16T00:00:50.718Z,41.89
2022-09-16T00:01:22.242Z,42.06
2022-09-16T00:01:53.791Z,42.19
2022-09-16T00:02:25.277Z,42.04
2022-09-16T00:02:56.770Z,41.94
2022-09-16T00:03:28.174Z,42.22
2022-09-16T00:03:59.585Z,42.07
2022-09-16T00:04:30.979Z,42.07
2022-09-16T00:05:02.483Z,41.93
2022-09-16T00:05:33.941Z,42.18
2022-09-16T00:06:05.412Z,42.19
2022-09-16T00:06:36.877Z,42.38
2022-09-16T00:07:08.259Z,41.99
2022-09-16T00:07:39.754Z,42.18
2022-09-16T00:08:11.230Z,42.02
2022-09-16T00:08:42.661Z,42.37
2022-09-16T00:09:14.102Z,42.08
2022-09-16T00:09:45.546Z,42.19
2022-09-16T00:10:16.974Z,41.94
2022-09-16T00:10:48.440Z,41.71
2022-09-16T00:11:19.816Z,41.94
2022-09-16T00:11:51.262Z,41.92
2022-09-16T00:12:22.659Z,42.05
2022-09-16T00:12:54.116Z,42.21
2022-09-16T00:13:25.712Z,42.14
2022-09-16T00:13:57.090Z,41.99
2022-09-16T00:14:28.668Z,42.17
2022-09-16T00:15:00.064Z,42.18
2022-09-16T00:15:31.529Z,42.32
2022-09-16T00:16:02.996Z,42.11
2022-09-16T00:16:34.534Z,42.02
2022-09-16T00:17:06.121Z,41.88
2022-09-16T00:17:37.487Z,42.09
2022-09-16T00:18:08.952Z,42.16
2022-09-16T00:18:40.345Z,42.11
2022-09-16T00:19:11.848Z,42.06
2022-09-16T00:19:43.284Z,41.97
2022-09-16T00:20:14.680Z,42.25
2022-09-16T00:20:46.060Z,42.01
2022-09-16T00:21:17.474Z,41.83
2022-09-16T00:21:48.947Z,42.05
2022-09-16T00:22:20.360Z,41.91
2022-09-16T00:22:51.843Z,41.90
2022-09-16T00:23:23.327Z,41.82
2022-09-16T00:23:54.880Z,41.77
2022-09-16T00:24:26.312Z,41.89
2022-09-16T00:24:57.758Z,41.73
2022-09-16T00:25:29.211Z,42.23
2022-09-16T00:26:00.624Z,41.95
2022-09-16T00:26:33.174Z,41.97
2022-09-16T00:27:04.578Z,41.83
2022-09-16T00:27:36.029Z,42.00
2022-09-16T00:28:07.465Z,41.95
2022-09-16T00:28:38.965Z,42.02
2022-09-16T00:29:10.421Z,42.24
2022-09-16T00:29:41.881Z,41.88
2022-09-16T00:30:13.399Z,41.81
2022-09-16T00:30:44.842Z,42.04
2022-09-16T00:31:16.287Z,41.70
2022-09-16T00:31:47.835Z,42.00
2022-09-16T00:32:19.425Z,41.94
2022-09-16T00:32:50.975Z,41.81
2022-09-16T00:33:22.486Z,41.96
2022-09-16T00:33:53.980Z,41.92
2022-09-16T00:34:25.415Z,41.85
2022-09-16T00:34:56.893Z,41.96
2022-09-16T00:35:28.435Z,42.07
2022-09-16T00:35:59.943Z,41.92
2022-09-16T00:36:31.581Z,41.83
2022-09-16T00:37:03.152Z,41.78
2022-09-16T00:37:34.681Z,41.71
2022-09-16T00:38:06.145Z,42.11
2022-09-16T00:38:37.617Z,42.12
2022-09-16T00:39:09.052Z,42.04
2022-09-16T00:39:40.433Z,41.80
2022-09-16T00:40:11.942Z,41.94
2022-09-16T00:40:43.424Z,41.81
2022-09-16T00:41:14.818Z,42.08
2022-09-16T00:41:46.300Z,42.03
2022-09-16T00:42:17.812Z,41.91
2022-09-16T00:42:49.275Z,41.82
2022-09-16T00:43:20.727Z,42.14
2022-09-16T00:43:52.144Z,41.71
2022-09-16T00:44:23.575Z,42.05
2022-09-16T00:44:55.059Z,41.87
2022-09-16T00:45:26.568Z,42.05
2022-09-16T00:45:58.050Z,42.05
2022-09-16T00:46:29.444Z,41.84
2022-09-16T00:47:01.096Z,42.15
2022-09-16T00:47:32.626Z,41.89
2022-09-16T00:48:04.179Z,42.15
2022-09-16T00:48:35.606Z,41.75
2022-09-16T00:49:07.029Z,41.93
2022-09-16T00:49:38.472Z,41.93
2022-09-16T00:50:09.946Z,41.99
2022-09-16T00:50:41.418Z,41.88
2022-09-16T00:51:12.810Z,42.01
2022-09-16T00:51:44.291Z,41.89
2022-09-16T00:52:15.702Z,41.76
2022-09-16T00:52:47.096Z,41.60
2022-09-16T00:53:18.540Z,41.80
2022-09-16T00:53:50.023Z,41.92
2022-09-16T00:54:21.472Z,42.04
2022-09-16T00:54:53.186Z,41.65
2022-09-16T00:55:24.613Z,41.88
2022-09-16T00:55:56.041Z,41.92
2022-09-16T00:56:27.439Z,41.64
2022-09-16T00:56:58.923Z,41.83
2022-09-16T00:57:30.332Z,41.97
2022-09-16T00:58:01.794Z,41.72
2022-09-16T00:58:33.382Z,41.96
2022-09-16T00:59:05.133Z,41.68
2022-09-16T00:59:36.491Z,42.01
2022-09-16T01:00:07.974Z,41.71
2022-09-16T01:00:39.431Z,42.03
2022-09-16T01:01:10.876Z,41.67
2022-09-16T01:01:42.343Z,41.66
2022-09-16T01:02:13.950Z,41.73
2022-09-16T01:02:45.442Z,41.68
2022-09-16T01:03:16.905Z,41.81
2022-09-16T01:03:48.341Z,41.83
2022-09-16T01:04:19.751Z,41.91
2022-09-16T01:04:51.212Z,41.97
2022-09-16T01:05:22.628Z,41.85
2022-09-16T01:05:54.031Z,41.84
2022-09-16T01:06:25.444Z,41.89
2022-09-16T01:06:57.011Z,41.72
2022-09-16T01:07:28.731Z,41.77
2022-09-16T01:08:00.201Z,41.74
2022-09-16T01:08:31.677Z,41.95
2022-09-16T01:09:06.115Z,41.94
2022-09-16T01:09:37.494Z,41.86
2022-09-16T01:10:08.916Z,41.72
2022-09-16T01:10:40.330Z,41.76
2022-09-16T01:11:11.773Z,41.75
2022-09-16T01:11:43.162Z,41.73
2022-09-16T01:12:14.574Z,41.74
2022-09-16T01:12:46.013Z,41.93
2022-09-16T01:13:17.489Z,41.71
2022-09-16T01:13:48.893Z,41.98
2022-09-16T01:14:20.325Z,42.00
2022-09-16T01:14:51.805Z,41.98
2022-09-16T01:15:23.279Z,41.94
2022-09-16T01:15:54.847Z,41.94
2022-09-16T01:16:26.398Z,41.63
2022-09-16T01:16:57.929Z,41.84
2022-09-16T01:17:29.425Z,41.96
2022-09-16T01:18:00.879Z,41.74
2022-09-16T01:18:32.426Z,41.76
2022-09-16T01:19:04.152Z,41.79
2022-09-16T01:19:35.634Z,42.01
2022-09-16T01:20:07.089Z,41.75
2022-09-16T01:20:38.531Z,41.88
2022-09-16T01:21:09.962Z,41.88
2022-09-16T01:21:41.371Z,41.94
2022-09-16T01:22:12.818Z,41.82
2022-09-16T01:22:44.339Z,41.94
2022-09-16T01:23:15.945Z,41.69
2022-09-16T01:23:47.364Z,41.78
2022-09-16T01:24:18.798Z,41.88
2022-09-16T01:24:50.202Z,41.92
2022-09-16T01:25:21.622Z,41.77
2022-09-16T01:25:53.013Z,41.97
2022-09-16T01:26:24.409Z,41.73
2022-09-16T01:26:55.830Z,41.88
2022-09-16T01:27:27.277Z,41.90
2022-09-16T01:27:58.739Z,41.99
2022-09-16T01:28:30.290Z,41.73
2022-09-16T01:29:01.710Z,41.75
2022-09-16T01:29:33.270Z,41.82
2022-09-16T01:30:04.792Z,41.91
2022-09-16T01:30:36.229Z,41.87
2022-09-16T01:31:07.877Z,41.86
2022-09-16T01:31:39.386Z,41.58
2022-09-16T01:32:10.870Z,41.58
2022-09-16T01:32:42.307Z,41.69
2022-09-16T01:33:13.804Z,41.56
2022-09-16T01:33:45.252Z,41.96
2022-09-16T01:34:16.753Z,41.95
2022-09-16T01:34:48.172Z,41.81
2022-09-16T01:35:19.650Z,41.73
2022-09-16T01:35:51.037Z,41.82
2022-09-16T01:36:22.448Z,41.71
2022-09-16T01:36:53.894Z,41.55
2022-09-16T01:37:25.260Z,41.72
2022-09-16T01:37:56.643Z,41.66
2022-09-16T01:38:28.162Z,41.78
2022-09-16T01:38:59.610Z,41.68
2022-09-16T01:39:31.024Z,41.60
2022-09-16T01:40:02.585Z,41.64
2022-09-16T01:40:34.099Z,41.68
2022-09-16T01:41:05.554Z,41.66
2022-09-16T01:41:37.033Z,41.92
2022-09-16T01:42:08.429Z,41.70
2022-09-16T01:42:39.823Z,41.82
2022-09-16T01:43:11.237Z,41.78
2022-09-16T01:43:42.687Z,41.94
2022-09-16T01:44:14.158Z,41.80
2022-09-16T01:44:45.562Z,41.78
2022-09-16T01:45:16.962Z,41.62
2022-09-16T01:45:48.382Z,41.75
2022-09-16T01:46:19.781Z,41.58
2022-09-16T01:46:51.312Z,41.88
2022-09-16T01:47:22.890Z,41.73
2022-09-16T01:47:54.304Z,41.84
2022-09-16T01:48:25.769Z,41.71
2022-09-16T01:48:57.211Z,41.59
2022-09-16T01:49:28.628Z,41.69
2022-09-16T01:50:00.070Z,41.80
2022-09-16T01:50:31.527Z,41.92
2022-09-16T01:51:02.917Z,41.68
2022-09-16T01:51:34.317Z,41.82
2022-09-16T01:52:05.703Z,41.59
2022-09-16T01:52:37.144Z,41.90
2022-09-16T01:53:08.629Z,41.96
2022-09-16T01:53:40.030Z,41.84
2022-09-16T01:54:11.504Z,41.79
2022-09-16T01:54:42.969Z,41.70
2022-09-16T01:55:14.373Z,41.75
2022-09-16T01:55:45.789Z,41.74
2022-09-16T01:56:17.248Z,41.62
2022-09-16T01:56:48.606Z,41.79
2022-09-16T01:57:23.211Z,41.84
2022-09-16T01:57:54.623Z,41.56
2022-09-16T01:58:26.034Z,41.65
2022-09-16T01:58:57.535Z,41.69
2022-09-16T01:59:28.957Z,41.75
2022-09-16T02:00:00.384Z,41.79
2022-09-16T02:00:31.963Z,42.00
2022-09-16T02:01:03.596Z,41.54
2022-09-16T02:01:35.065Z,41.69
2022-09-16T02:02:06.588Z,41.71
2022-09-16T02:02:38.326Z,41.81
2022-09-16T02:03:09.748Z,41.84
2022-09-16T02:03:41.171Z,41.80
2022-09-16T02:04:12.637Z,41.84
2022-09-16T02:04:44.052Z,41.68
2022-09-16T02:05:15.471Z,41.70
2022-09-16T02:05:46.876Z,41.61
2022-09-16T02:06:18.314Z,42.01
2022-09-16T02:06:49.725Z,41.84
2022-09-16T02:07:21.121Z,41.59
2022-09-16T02:07:52.596Z,41.80
2022-09-16T02:08:24.007Z,41.42
2022-09-16T02:08:55.459Z,41.62
2022-09-16T02:09:26.942Z,41.80
2022-09-16T02:09:58.391Z,41.63
2022-09-16T02:10:29.836Z,41.61
2022-09-16T02:11:01.218Z,41.54
2022-09-16T02:11:32.624Z,41.70
2022-09-16T02:12:04.032Z,41.75
2022-09-16T02:12:35.505Z,41.54
2022-09-16T02:13:06.990Z,41.82
2022-09-16T02:13:38.453Z,42.00
2022-09-16T02:14:09.855Z,41.80
2022-09-16T02:14:41.253Z,41.72
2022-09-16T02:15:12.678Z,41.49
2022-09-16T02:15:44.091Z,41.59
2022-09-16T02:16:15.601Z,41.62
2022-09-16T02:16:47.041Z,41.95
2022-09-16T02:17:18.428Z,41.76
2022-09-16T02:17:49.880Z,41.98
2022-09-16T02:18:21.271Z,41.79
2022-09-16T02:18:52.689Z,41.76
2022-09-16T02:19:24.086Z,41.56
2022-09-16T02:19:55.493Z,41.59
2022-09-16T02:20:26.996Z,41.80
2022-09-16T02:20:58.457Z,41.52
2022-09-16T02:21:29.879Z,41.57
2022-09-16T02:22:01.304Z,41.65
2022-09-16T02:22:32.726Z,41.75
2022-09-16T02:23:04.239Z,41.69
2022-09-16T02:23:35.627Z,41.73
2022-09-16T02:24:07.107Z,41.71
2022-09-16T02:24:38.499Z,41.69
2022-09-16T02:25:09.943Z,41.57
2022-09-16T02:25:41.343Z,41.56
2022-09-16T02:26:12.739Z,41.54
2022-09-16T02:26:44.155Z,41.90
2022-09-16T02:27:15.577Z,41.70
2022-09-16T02:27:46.988Z,41.81
2022-09-16T02:28:18.517Z,41.90
2022-09-16T02:28:49.931Z,41.62
2022-09-16T02:29:21.387Z,41.50
2022-09-16T02:29:52.786Z,41.62
2022-09-16T02:30:24.208Z,41.56
2022-09-16T02:30:55.799Z,41.59
2022-09-16T02:31:27.285Z,41.76
2022-09-16T02:31:58.813Z,41.71
2022-09-16T02:32:30.204Z,41.71
2022-09-16T02:33:01.741Z,41.62
2022-09-16T02:33:33.411Z,41.76
2022-09-16T02:34:04.870Z,41.71
2022-09-16T02:34:36.276Z,41.63
2022-09-16T02:35:07.767Z,41.56
2022-09-16T02:35:39.155Z,41.98
2022-09-16T02:36:10.572Z,41.64
2022-09-16T02:36:41.989Z,41.57
2022-09-16T02:37:13.425Z,41.80
2022-09-16T02:37:44.852Z,41.70
2022-09-16T02:38:16.315Z,41.73
2022-09-16T02:38:47.816Z,41.74
2022-09-16T02:39:19.196Z,41.70
2022-09-16T02:39:50.695Z,41.71
2022-09-16T02:40:22.266Z,41.56
2022-09-16T02:40:53.732Z,41.86
2022-09-16T02:41:25.260Z,41.73
2022-09-16T02:41:56.659Z,41.50
2022-09-16T02:42:28.141Z,41.47
2022-09-16T02:42:59.526Z,41.72
2022-09-16T02:43:30.928Z,41.95
2022-09-16T02:44:02.527Z,41.55
2022-09-16T02:44:33.949Z,41.76
2022-09-16T02:45:05.430Z,41.57
2022-09-16T02:45:36.863Z,41.70
2022-09-16T02:46:08.405Z,41.86
2022-09-16T02:46:39.922Z,41.75
2022-09-16T02:47:11.376Z,41.74
2022-09-16T02:47:42.733Z,41.73
2022-09-16T02:48:14.124Z,41.44
2022-09-16T02:48:45.553Z,41.48
2022-09-16T02:49:17.061Z,41.71
2022-09-16T02:49:48.437Z,41.65
2022-09-16T02:50:19.861Z,41.49
2022-09-16T02:50:51.289Z,41.73
2022-09-16T02:51:22.722Z,41.74
2022-09-16T02:51:54.154Z,41.40
2022-09-16T02:52:25.618Z,41.83
2022-09-16T02:52:57.079Z,41.73
2022-09-16T02:53:28.520Z,41.55
2022-09-16T02:53:59.946Z,41.63
2022-09-16T02:54:31.361Z,41.78
2022-09-16T02:55:02.904Z,41.66
2022-09-16T02:55:34.329Z,41.66
2022-09-16T02:56:05.849Z,41.58
2022-09-16T02:56:37.249Z,41.80
2022-09-16T02:57:08.698Z,41.81
2022-09-16T02:57:40.127Z,41.52
2022-09-16T02:58:11.517Z,41.64
2022-09-16T02:58:42.894Z,41.75
2022-09-16T02:59:14.313Z,41.63
2022-09-16T02:59:45.713Z,41.78
2022-09-16T03:00:17.192Z,41.71
2022-09-16T03:00:48.623Z,41.72
2022-09-16T03:01:20.121Z,41.64
2022-09-16T03:01:51.602Z,41.76
2022-09-16T03:02:23.066Z,41.67
2022-09-16T03:02:54.551Z,41.60
2022-09-16T03:03:26.014Z,41.70
2022-09-16T03:03:57.480Z,41.63
2022-09-16T03:04:28.926Z,41.59
2022-09-16T03:05:00.420Z,41.44
2022-09-16T03:05:31.970Z,41.64
2022-09-16T03:06:03.724Z,41.61
2022-09-16T03:06:35.153Z,41.75
2022-09-16T03:07:06.625Z,41.89
2022-09-16T03:07:38.032Z,41.61
2022-09-16T03:08:09.538Z,41.54
2022-09-16T03:08:41.016Z,41.67
2022-09-16T03:09:12.437Z,41.53
2022-09-16T03:09:43.843Z,41.76
2022-09-16T03:10:15.236Z,41.49
2022-09-16T03:10:46.721Z,41.73
2022-09-16T03:11:18.149Z,41.62
2022-09-16T03:11:49.596Z,41.73
2022-09-16T03:12:21.032Z,41.42
2022-09-16T03:12:52.499Z,41.60
2022-09-16T03:13:23.907Z,41.55
2022-09-16T03:13:55.371Z,41.42
2022-09-16T03:14:26.818Z,41.70
2022-09-16T03:14:58.237Z,41.45
2022-09-16T03:15:29.646Z,41.78
2022-09-16T03:16:01.173Z,41.58
2022-09-16T03:16:32.692Z,41.87
2022-09-16T03:17:04.181Z,41.49
2022-09-16T03:17:35.580Z,41.73
2022-09-16T03:18:07.028Z,41.48
2022-09-16T03:18:38.413Z,41.67
2022-09-16T03:19:09.830Z,41.45
2022-09-16T03:19:41.238Z,41.60
2022-09-16T03:20:12.724Z,41.55
2022-09-16T03:20:44.142Z,41.75
2022-09-16T03:21:15.576Z,41.66
2022-09-16T03:21:47.002Z,41.76
2022-09-16T03:22:18.542Z,41.47
2022-09-16T03:22:49.960Z,41.73
2022-09-16T03:23:21.404Z,41.57
2022-09-16T03:23:52.878Z,41.77
2022-09-16T03:24:24.324Z,41.75
2022-09-16T03:24:55.838Z,41.76
2022-09-16T03:25:27.283Z,41.52
2022-09-16T03:25:58.716Z,41.48
2022-09-16T03:26:30.132Z,41.66
2022-09-16T03:27:01.617Z,41.81
2022-09-16T03:27:33.303Z,41.61
2022-09-16T03:28:04.906Z,41.55
2022-09-16T03:28:36.408Z,41.72
2022-09-16T03:29:07.838Z,41.57
2022-09-16T03:29:43.726Z,41.54
2022-09-16T03:30:17.137Z,41.57
2022-09-16T03:30:48.571Z,41.70
2022-09-16T03:31:20.027Z,41.71
2022-09-16T03:31:51.478Z,41.79
2022-09-16T03:32:22.937Z,41.55
2022-09-16T03:32:54.350Z,41.49
2022-09-16T03:33:25.791Z,41.69
2022-09-16T03:33:57.226Z,41.61
2022-09-16T03:34:28.693Z,41.61
2022-09-16T03:35:00.104Z,41.51
2022-09-16T03:35:31.523Z,41.51
2022-09-16T03:36:03.042Z,41.48
2022-09-16T03:36:34.515Z,41.63
2022-09-16T03:37:05.949Z,41.63
2022-09-16T03:37:37.340Z,41.67
2022-09-16T03:38:08.722Z,41.54
2022-09-16T03:38:40.173Z,41.70
2022-09-16T03:39:11.641Z,41.77
2022-09-16T03:39:43.317Z,41.57
2022-09-16T03:40:14.836Z,41.64
2022-09-16T03:40:46.323Z,41.49
2022-09-16T03:41:17.728Z,41.41
2022-09-16T03:41:49.115Z,41.64
2022-09-16T03:42:20.575Z,41.72
2022-09-16T03:42:51.983Z,41.80
2022-09-16T03:43:23.484Z,41.74
2022-09-16T03:43:55.025Z,41.47
2022-09-16T03:44:26.534Z,41.61
2022-09-16T03:44:58.012Z,41.50
2022-09-16T03:45:29.485Z,41.59
2022-09-16T03:46:00.937Z,41.47
2022-09-16T03:46:32.571Z,41.40
2022-09-16T03:47:04.092Z,41.63
2022-09-16T03:47:35.552Z,41.56
2022-09-16T03:48:06.970Z,41.45
2022-09-16T03:48:38.418Z,41.66
2022-09-16T03:49:09.858Z,41.48
2022-09-16T03:49:41.281Z,41.38
2022-09-16T03:50:12.660Z,41.35
2022-09-16T03:50:44.107Z,41.60
2022-09-16T03:51:15.554Z,41.60
2022-09-16T03:51:47.005Z,41.54
2022-09-16T03:52:18.465Z,41.69
2022-09-16T03:52:49.914Z,41.69
2022-09-16T03:53:21.340Z,41.40
2022-09-16T03:53:52.885Z,41.54
2022-09-16T03:54:24.292Z,41.66
2022-09-16T03:54:55.717Z,41.43
2022-09-16T03:55:27.185Z,41.65
2022-09-16T03:55:58.589Z,41.65
2022-09-16T03:56:30.069Z,41.51
2022-09-16T03:57:01.467Z,41.52
2022-09-16T03:57:33.166Z,41.60
2022-09-16T03:58:04.603Z,41.74
2022-09-16T03:58:36.049Z,41.72
2022-09-16T03:59:07.433Z,41.55
2022-09-16T03:59:38.878Z,41.65
2022-09-16T04:00:10.429Z,41.34
2022-09-16T04:00:44.574Z,41.73
2022-09-16T04:01:16.016Z,41.33
2022-09-16T04:01:47.466Z,41.76
2022-09-16T04:02:19.019Z,41.49
2022-09-16T04:02:50.615Z,41.59
2022-09-16T04:03:22.115Z,41.42
2022-09-16T04:03:53.574Z,41.54
2022-09-16T04:04:25.025Z,41.43
2022-09-16T04:04:56.463Z,41.26
2022-09-16T04:05:27.899Z,41.54
2022-09-16T04:05:59.330Z,41.33
2022-09-16T04:06:30.829Z,41.35
2022-09-16T04:07:02.224Z,41.59
2022-09-16T04:07:33.841Z,41.31
2022-09-16T04:08:05.352Z,41.41
2022-09-16T04:08:36.873Z,41.25
2022-09-16T04:09:08.329Z,41.34
2022-09-16T04:09:39.793Z,41.63
2022-09-16T04:10:11.186Z,41.49
2022-09-16T04:10:42.590Z,41.48
2022-09-16T04:11:13.988Z,41.53
2022-09-16T04:11:45.364Z,41.44
2022-09-16T04:12:16.788Z,41.52
2022-09-16T04:12:48.190Z,41.66
2022-09-16T04:13:19.637Z,41.46
2022-09-16T04:13:51.117Z,41.48
2022-09-16T04:14:22.586Z,41.31
2022-09-16T04:14:54.057Z,41.50
2022-09-16T04:15:25.498Z,41.47
2022-09-16T04:15:56.967Z,41.67
2022-09-16T04:16:28.448Z,41.54
2022-09-16T04:16:59.869Z,41.52
2022-09-16T04:17:31.324Z,41.54
2022-09-16T04:18:02.722Z,41.65
2022-09-16T04:18:34.151Z,41.60
2022-09-16T04:19:05.541Z,41.52
2022-09-16T04:19:36.975Z,41.42
2022-09-16T04:20:08.504Z,41.49
2022-09-16T04:20:39.943Z,41.56
2022-09-16T04:21:11.356Z,41.41
2022-09-16T04:21:42.770Z,41.61
2022-09-16T04:22:14.168Z,41.52
2022-09-16T04:22:45.564Z,41.50
2022-09-16T04:23:16.925Z,41.10
2022-09-16T04:23:48.367Z,41.22
2022-09-16T04:24:19.782Z,41.30
2022-09-16T04:24:51.488Z,41.45
2022-09-16T04:25:22.891Z,41.32
2022-09-16T04:25:54.292Z,41.40
2022-09-16T04:26:25.777Z,41.33
2022-09-16T04:26:57.219Z,41.63
2022-09-16T04:27:28.700Z,41.22
2022-09-16T04:28:00.068Z,41.58
2022-09-16T04:28:31.639Z,41.32
2022-09-16T04:29:05.907Z,41.37
2022-09-16T04:29:37.345Z,41.42
2022-09-16T04:30:08.781Z,41.25
2022-09-16T04:30:40.268Z,41.48
2022-09-16T04:31:11.824Z,41.28
2022-09-16T04:31:43.275Z,41.44
2022-09-16T04:32:14.680Z,41.47
2022-09-16T04:32:46.096Z,41.46
2022-09-16T04:33:17.519Z,41.17
2022-09-16T04:33:48.985Z,41.35
2022-09-16T04:34:20.402Z,41.25
2022-09-16T04:34:51.875Z,41.42
2022-09-16T04:35:23.303Z,41.58
2022-09-16T04:35:54.720Z,41.48
2022-09-16T04:36:26.238Z,41.34
2022-09-16T04:36:57.633Z,41.33
2022-09-16T04:37:29.090Z,41.21
2022-09-16T04:38:00.522Z,41.28
2022-09-16T04:38:32.252Z,41.34
2022-09-16T04:39:03.714Z,41.25
2022-09-16T04:39:35.167Z,41.34
2022-09-16T04:40:06.657Z,41.23
2022-09-16T04:40:38.095Z,41.41
2022-09-16T04:41:09.519Z,41.13
2022-09-16T04:41:40.929Z,41.15
2022-09-16T04:42:12.337Z,41.34
2022-09-16T04:42:43.854Z,41.46
2022-09-16T04:43:15.250Z,41.17
2022-09-16T04:43:46.660Z,41.30
2022-09-16T04:44:18.051Z,41.24
2022-09-16T04:44:49.569Z,41.40
2022-09-16T04:45:21.017Z,41.18
2022-09-16T04:45:52.422Z,41.39
2022-09-16T04:46:23.969Z,41.16
2022-09-16T04:46:55.440Z,41.11
2022-09-16T04:47:26.940Z,41.32
2022-09-16T04:47:58.353Z,41.18
2022-09-16T04:48:29.821Z,41.33
2022-09-16T04:49:01.224Z,41.13
2022-09-16T04:49:32.664Z,41.19
2022-09-16T04:50:04.191Z,41.05
2022-09-16T04:50:35.631Z,41.03
2022-09-16T04:51:07.169Z,41.29
2022-09-16T04:51:38.578Z,41.01
2022-09-16T04:52:09.971Z,41.13
2022-09-16T04:52:41.387Z,41.03
2022-09-16T04:53:12.823Z,41.13
2022-09-16T04:53:44.473Z,41.40
2022-09-16T04:54:15.944Z,41.07
2022-09-16T04:54:47.353Z,41.25
2022-09-16T04:55:18.817Z,41.38
2022-09-16T04:55:50.255Z,41.49
2022-09-16T04:56:21.631Z,41.50
2022-09-16T04:56:53.011Z,41.27
2022-09-16T04:57:24.466Z,41.10
2022-09-16T04:57:55.866Z,41.23
2022-09-16T04:58:27.256Z,41.39
2022-09-16T04:58:58.634Z,41.14
2022-09-16T04:59:30.035Z,41.40
2022-09-16T05:00:04.612Z,41.18
2022-09-16T05:00:36.089Z,41.25
2022-09-16T05:01:07.542Z,41.56
2022-09-16T05:01:39.072Z,41.35
2022-09-16T05:02:10.546Z,41.40
2022-09-16T05:02:41.942Z,41.33
2022-09-16T05:03:13.403Z,41.42
2022-09-16T05:03:44.863Z,41.47
2022-09-16T05:04:16.283Z,41.39
2022-09-16T05:04:47.791Z,41.48
2022-09-16T05:05:19.226Z,41.23
2022-09-16T05:05:50.717Z,41.54
2022-09-16T05:06:22.130Z,41.27
2022-09-16T05:06:53.554Z,41.53
2022-09-16T05:07:25.030Z,41.29
2022-09-16T05:07:56.403Z,41.47
2022-09-16T05:08:27.884Z,41.72
2022-09-16T05:08:59.309Z,41.53
2022-09-16T05:09:30.707Z,41.42
2022-09-16T05:10:02.162Z,41.42
2022-09-16T05:10:33.751Z,41.60
2022-09-16T05:11:05.106Z,41.31
2022-09-16T05:11:36.509Z,41.50
2022-09-16T05:12:07.936Z,41.20
2022-09-16T05:12:39.460Z,41.29
2022-09-16T05:13:10.882Z,41.48
2022-09-16T05:13:42.294Z,41.56
2022-09-16T05:14:13.679Z,41.37
2022-09-16T05:14:45.090Z,41.67
2022-09-16T05:15:16.522Z,41.44
2022-09-16T05:15:51.098Z,41.62
2022-09-16T05:16:22.808Z,41.44
2022-09-16T05:16:54.274Z,41.41
2022-09-16T05:17:49.460Z,41.49
2022-09-16T05:18:17.057Z,41.52
2022-09-16T05:18:48.472Z,41.25
2022-09-16T05:19:19.811Z,41.34
2022-09-16T05:19:51.211Z,41.52
2022-09-16T05:20:22.762Z,41.35
2022-09-16T05:20:54.176Z,41.55
2022-09-16T05:21:25.615Z,41.28
2022-09-16T05:21:57.025Z,41.31
2022-09-16T05:22:28.398Z,41.41
2022-09-16T05:22:59.815Z,41.40
2022-09-16T05:23:31.288Z,41.59
2022-09-16T05:24:02.718Z,41.27
2022-09-16T05:24:34.201Z,41.43
2022-09-16T05:25:05.741Z,41.32
2022-09-16T05:25:37.160Z,41.69
2022-09-16T05:26:08.569Z,41.57
2022-09-16T05:26:40.083Z,41.26
2022-09-16T05:27:11.528Z,41.57
2022-09-16T05:27:42.985Z,41.56
2022-09-16T05:28:14.507Z,41.46
2022-09-16T05:28:46.039Z,41.32
2022-09-16T05:29:17.439Z,41.33
2022-09-16T05:29:48.847Z,41.56
2022-09-16T05:30:25.231Z,41.43
2022-09-16T05:30:57.462Z,41.27
2022-09-16T05:31:28.873Z,41.50
2022-09-16T05:32:00.300Z,41.17
2022-09-16T05:32:31.964Z,41.41
2022-09-16T05:33:06.238Z,41.15
2022-09-16T05:33:37.694Z,41.21
2022-09-16T05:34:09.130Z,41.57
2022-09-16T05:34:40.550Z,41.43
2022-09-16T05:35:11.979Z,41.45
2022-09-16T05:35:43.471Z,41.33
2022-09-16T05:36:14.883Z,41.44
2022-09-16T05:36:46.321Z,41.40
2022-09-16T05:37:17.743Z,41.18
2022-09-16T05:37:49.118Z,41.25
2022-09-16T05:38:20.613Z,41.37
2022-09-16T05:39:18.281Z,41.39
2022-09-16T05:39:43.484Z,41.40
2022-09-16T05:40:15.025Z,41.18
2022-09-16T05:40:46.546Z,41.49
2022-09-16T05:41:17.931Z,41.20
2022-09-16T05:41:49.367Z,41.41
2022-09-16T05:42:20.850Z,41.17
2022-09-16T05:42:52.266Z,41.34
2022-09-16T05:43:23.748Z,41.16
2022-09-16T05:43:55.162Z,41.16
2022-09-16T05:44:26.558Z,41.27
2022-09-16T05:44:57.951Z,41.53
2022-09-16T05:45:32.419Z,41.49
2022-09-16T05:46:04.131Z,41.21
2022-09-16T05:46:35.596Z,41.16
2022-09-16T05:47:07.113Z,41.43
2022-09-16T05:47:38.523Z,41.14
2022-09-16T05:48:09.936Z,41.41
2022-09-16T05:48:41.376Z,41.32
2022-09-16T05:49:12.775Z,41.04
2022-09-16T05:49:44.177Z,41.22
2022-09-16T05:50:15.602Z,41.45
2022-09-16T05:50:47.132Z,41.39
2022-09-16T05:51:20.615Z,41.19
2022-09-16T05:51:52.232Z,41.10
2022-09-16T05:52:23.837Z,41.43
2022-09-16T05:52:55.246Z,41.17
2022-09-16T05:53:26.704Z,41.29
2022-09-16T05:53:58.141Z,41.10
2022-09-16T05:54:29.526Z,41.35
2022-09-16T05:55:00.946Z,41.36
2022-09-16T05:55:32.485Z,41.11
2022-09-16T05:56:03.951Z,41.22
2022-09-16T05:56:35.402Z,41.18
2022-09-16T05:57:07.375Z,41.39
2022-09-16T05:57:38.885Z,41.36
2022-09-16T05:58:10.381Z,41.14
2022-09-16T05:58:41.780Z,41.30
2022-09-16T05:59:13.348Z,41.12
2022-09-16T05:59:44.769Z,41.30
2022-09-16T06:00:16.197Z,41.14
2022-09-16T06:00:47.695Z,41.26
2022-09-16T06:01:19.199Z,41.24
2022-09-16T06:01:50.740Z,41.23
2022-09-16T06:02:22.213Z,41.00
2022-09-16T06:02:53.750Z,41.21
2022-09-16T06:03:25.199Z,41.38
2022-09-16T06:03:56.750Z,41.11
2022-09-16T06:04:28.188Z,41.34
2022-09-16T06:04:59.617Z,41.08
2022-09-16T06:05:31.064Z,41.29
2022-09-16T06:06:02.669Z,41.36
2022-09-16T06:06:34.099Z,41.27
2022-09-16T06:07:05.536Z,41.22
2022-09-16T06:07:36.979Z,41.21
2022-09-16T06:08:08.365Z,41.28
2022-09-16T06:08:39.797Z,40.97
2022-09-16T06:09:11.222Z,41.19
2022-09-16T06:09:42.652Z,41.20
2022-09-16T06:10:14.090Z,41.16
2022-09-16T06:10:45.476Z,41.30
2022-09-16T06:11:16.940Z,41.28
2022-09-16T06:11:48.383Z,41.11
2022-09-16T06:12:19.816Z,41.03
2022-09-16T06:12:51.290Z,41.17
2022-09-16T06:13:22.686Z,41.05
2022-09-16T06:13:54.144Z,41.16
2022-09-16T06:14:25.558Z,41.31
2022-09-16T06:14:57.003Z,41.22
2022-09-16T06:15:28.531Z,41.18
2022-09-16T06:16:00.008Z,41.21
2022-09-16T06:16:31.526Z,41.25
2022-09-16T06:17:03.065Z,41.02
2022-09-16T06:17:34.512Z,41.37
2022-09-16T06:18:06.660Z,41.03
2022-09-16T06:18:38.193Z,41.32
2022-09-16T06:19:09.657Z,41.16
2022-09-16T06:19:41.038Z,41.18
2022-09-16T06:20:12.518Z,41.03
2022-09-16T06:20:43.986Z,41.25
2022-09-16T06:21:15.476Z,40.92
2022-09-16T06:21:46.965Z,41.12
2022-09-16T06:22:18.419Z,40.87
2022-09-16T06:22:49.863Z,41.09
2022-09-16T06:23:21.331Z,41.30
2022-09-16T06:23:52.762Z,41.10
2022-09-16T06:24:24.185Z,40.98
2022-09-16T06:24:55.572Z,41.05
2022-09-16T06:25:26.988Z,41.12
2022-09-16T06:25:58.480Z,41.06
2022-09-16T06:26:29.887Z,41.37
2022-09-16T06:27:01.375Z,41.25
2022-09-16T06:27:33.199Z,41.25
2022-09-16T06:28:04.597Z,41.15
2022-09-16T06:28:35.995Z,41.12
2022-09-16T06:29:07.376Z,41.15
2022-09-16T06:29:38.748Z,41.00
2022-09-16T06:30:10.230Z,41.25
2022-09-16T06:30:41.794Z,40.95
2022-09-16T06:31:13.406Z,41.35
2022-09-16T06:31:44.838Z,41.27
2022-09-16T06:32:16.292Z,40.98
2022-09-16T06:32:47.740Z,41.09
2022-09-16T06:33:19.194Z,41.24
2022-09-16T06:33:50.642Z,41.05
2022-09-16T06:34:22.098Z,41.13
2022-09-16T06:34:53.570Z,41.25
2022-09-16T06:35:25.011Z,41.14
2022-09-16T06:35:56.519Z,41.09
2022-09-16T06:36:27.982Z,41.21
2022-09-16T06:36:59.372Z,41.17
2022-09-16T06:37:30.846Z,41.17
2022-09-16T06:38:02.310Z,41.09
2022-09-16T06:38:33.799Z,41.09
2022-09-16T06:39:05.206Z,41.11
2022-09-16T06:39:36.617Z,41.27
2022-09-16T06:40:08.075Z,41.04
2022-09-16T06:40:39.534Z,41.24
2022-09-16T06:41:10.993Z,41.09
2022-09-16T06:41:42.413Z,41.24
2022-09-16T06:42:13.821Z,41.04
2022-09-16T06:42:45.228Z,41.34
2022-09-16T06:43:16.663Z,41.37
2022-09-16T06:43:48.112Z,41.31
2022-09-16T06:44:19.514Z,41.29
2022-09-16T06:44:50.932Z,41.35
2022-09-16T06:45:22.333Z,41.13
2022-09-16T06:45:53.795Z,40.95
2022-09-16T06:46:25.486Z,41.29